QFA621 YBBN-YMML
Flight info
| Callsign | QFA621 |
|---|---|
| Flight time | N/A |
| Altitude | 38000 |
| Route | BN H91 SANEG Q35 DORSU H119 ML |
| Aircraft | B738/M-SDE2E3FGHIRWXY/LB1 |
Departure
| Time | 2026-05-07 00:53 |
|---|---|
| Airport | Brisbane International Airport (YBBN) |
Arrival
| Time | N/A |
|---|---|
| Airport | Melbourne Airport (YMML) |
| Time | Latitude | Longitude | Altitude | Speed | Heading |
|---|---|---|---|---|---|
| 2026-05-07 00:23 | -27.38431 | 153.12146 | 20 ft | 0 kts | 271° |
| 2026-05-07 00:45 | -27.38431 | 153.12170 | 20 ft | 4 kts | 271° |
| 2026-05-07 00:45 | -27.38432 | 153.12193 | 20 ft | 4 kts | 271° |
| 2026-05-07 00:45 | -27.38432 | 153.12224 | 20 ft | 4 kts | 271° |
| 2026-05-07 00:46 | -27.38432 | 153.12254 | 20 ft | 4 kts | 270° |
| 2026-05-07 00:46 | -27.38432 | 153.12277 | 20 ft | 4 kts | 270° |
| 2026-05-07 00:46 | -27.38433 | 153.12285 | 20 ft | 0 kts | 270° |
| 2026-05-07 00:48 | -27.38433 | 153.12284 | 20 ft | 0 kts | 270° |
| 2026-05-07 00:48 | -27.38436 | 153.12272 | 20 ft | 3 kts | 241° |
| 2026-05-07 00:49 | -27.38469 | 153.12267 | 20 ft | 7 kts | 166° |
| 2026-05-07 00:49 | -27.38508 | 153.12313 | 20 ft | 10 kts | 118° |
| 2026-05-07 00:49 | -27.38551 | 153.12383 | 20 ft | 11 kts | 121° |
| 2026-05-07 00:49 | -27.38534 | 153.12452 | 22 ft | 10 kts | 39° |
| 2026-05-07 00:50 | -27.38473 | 153.12490 | 22 ft | 11 kts | 27° |
| 2026-05-07 00:50 | -27.38384 | 153.12541 | 20 ft | 18 kts | 27° |
| 2026-05-07 00:50 | -27.38265 | 153.12609 | 20 ft | 19 kts | 27° |
| 2026-05-07 00:50 | -27.38148 | 153.12675 | 20 ft | 19 kts | 26° |
| 2026-05-07 00:51 | -27.38039 | 153.12738 | 21 ft | 12 kts | 27° |
| 2026-05-07 00:51 | -27.37995 | 153.12783 | 20 ft | 7 kts | 70° |
| 2026-05-07 00:51 | -27.38002 | 153.12838 | 20 ft | 8 kts | 114° |
| 2026-05-07 00:51 | -27.38033 | 153.12904 | 20 ft | 11 kts | 117° |
| 2026-05-07 00:52 | -27.38073 | 153.12992 | 20 ft | 14 kts | 117° |
| 2026-05-07 00:52 | -27.38121 | 153.13050 | 21 ft | 9 kts | 174° |
| 2026-05-07 00:52 | -27.38175 | 153.13025 | 21 ft | 8 kts | 207° |
| 2026-05-07 00:52 | -27.38228 | 153.12995 | 22 ft | 11 kts | 207° |
| 2026-05-07 00:53 | -27.38492 | 153.12844 | 22 ft | 76 kts | 207° |
| 2026-05-07 00:53 | -27.39149 | 153.12468 | 19 ft | 133 kts | 207° |
| 2026-05-07 00:53 | -27.40115 | 153.11953 | 178 ft | 163 kts | 209° |
| 2026-05-07 00:53 | -27.41134 | 153.11446 | 826 ft | 163 kts | 207° |
| 2026-05-07 00:54 | -27.42186 | 153.10940 | 1320 ft | 172 kts | 207° |
| 2026-05-07 00:54 | -27.43382 | 153.10374 | 1611 ft | 199 kts | 207° |
| 2026-05-07 00:54 | -27.44741 | 153.09734 | 1803 ft | 222 kts | 202° |
| 2026-05-07 00:54 | -27.46320 | 153.09412 | 2209 ft | 235 kts | 189° |
| 2026-05-07 00:55 | -27.48016 | 153.09213 | 2553 ft | 254 kts | 191° |
| 2026-05-07 00:55 | -27.49777 | 153.08993 | 3336 ft | 256 kts | 191° |
| 2026-05-07 00:55 | -27.51572 | 153.08759 | 3960 ft | 262 kts | 190° |
| 2026-05-07 00:55 | -27.53395 | 153.08513 | 4678 ft | 266 kts | 190° |
| 2026-05-07 00:56 | -27.55253 | 153.08256 | 5351 ft | 270 kts | 191° |
| 2026-05-07 00:56 | -27.57131 | 153.07991 | 6088 ft | 273 kts | 190° |
| 2026-05-07 00:56 | -27.59029 | 153.07720 | 6826 ft | 276 kts | 191° |
| 2026-05-07 00:56 | -27.60948 | 153.07443 | 7509 ft | 281 kts | 191° |
| 2026-05-07 00:57 | -27.62910 | 153.07158 | 8206 ft | 286 kts | 191° |
| 2026-05-07 00:57 | -27.64898 | 153.06869 | 8920 ft | 291 kts | 192° |
| 2026-05-07 00:57 | -27.66926 | 153.06573 | 9661 ft | 297 kts | 192° |
| 2026-05-07 00:57 | -27.68972 | 153.06274 | 10370 ft | 304 kts | 192° |
| 2026-05-07 00:58 | -27.71144 | 153.05953 | 10613 ft | 327 kts | 192° |
| 2026-05-07 00:58 | -27.73481 | 153.05609 | 10786 ft | 350 kts | 191° |
| 2026-05-07 00:58 | -27.75974 | 153.05243 | 10965 ft | 371 kts | 191° |
| 2026-05-07 00:58 | -27.78587 | 153.04860 | 11321 ft | 383 kts | 192° |
| 2026-05-07 00:59 | -27.83610 | 153.02976 | 12633 ft | 379 kts | 214° |
| 2026-05-07 00:59 | -27.85779 | 153.01365 | 13323 ft | 378 kts | 220° |
| 2026-05-07 00:59 | -27.87931 | 152.99634 | 14012 ft | 381 kts | 220° |
| 2026-05-07 01:00 | -27.90090 | 152.97877 | 14628 ft | 384 kts | 221° |
| 2026-05-07 01:00 | -27.92274 | 152.96099 | 15256 ft | 388 kts | 221° |
| 2026-05-07 01:00 | -27.94478 | 152.94313 | 15892 ft | 391 kts | 221° |
| 2026-05-07 01:00 | -27.96704 | 152.92516 | 16514 ft | 395 kts | 221° |
| 2026-05-07 01:01 | -27.98949 | 152.90710 | 17122 ft | 398 kts | 221° |
| 2026-05-07 01:01 | -28.01218 | 152.88889 | 17704 ft | 402 kts | 221° |
| 2026-05-07 01:01 | -28.03509 | 152.87051 | 18243 ft | 405 kts | 221° |
| 2026-05-07 01:01 | -28.05825 | 152.85194 | 18761 ft | 408 kts | 221° |
| 2026-05-07 01:02 | -28.08144 | 152.83335 | 19299 ft | 409 kts | 221° |
| 2026-05-07 01:02 | -28.10475 | 152.81467 | 19896 ft | 409 kts | 221° |
| 2026-05-07 01:02 | -28.12769 | 152.79628 | 20469 ft | 410 kts | 221° |
| 2026-05-07 01:02 | -28.15097 | 152.77760 | 20984 ft | 412 kts | 222° |
| 2026-05-07 01:03 | -28.17438 | 152.75878 | 21457 ft | 414 kts | 222° |
| 2026-05-07 01:03 | -28.19799 | 152.73979 | 21951 ft | 416 kts | 222° |
| 2026-05-07 01:03 | -28.22168 | 152.72072 | 22366 ft | 420 kts | 222° |
| 2026-05-07 01:03 | -28.24553 | 152.70152 | 22873 ft | 421 kts | 223° |
| 2026-05-07 01:04 | -28.26941 | 152.68230 | 23386 ft | 421 kts | 223° |
| 2026-05-07 01:04 | -28.29333 | 152.66304 | 23819 ft | 423 kts | 223° |
| 2026-05-07 01:04 | -28.31741 | 152.64361 | 24194 ft | 426 kts | 223° |
| 2026-05-07 01:04 | -28.34168 | 152.62400 | 24469 ft | 430 kts | 223° |
| 2026-05-07 01:05 | -28.36621 | 152.60419 | 24780 ft | 433 kts | 224° |
| 2026-05-07 01:05 | -28.39083 | 152.58431 | 25143 ft | 435 kts | 224° |
| 2026-05-07 01:05 | -28.41559 | 152.56431 | 25513 ft | 436 kts | 224° |
| 2026-05-07 01:05 | -28.44006 | 152.54453 | 25847 ft | 438 kts | 224° |
| 2026-05-07 01:06 | -28.46494 | 152.52440 | 26145 ft | 441 kts | 225° |
| 2026-05-07 01:06 | -28.49002 | 152.50409 | 26442 ft | 444 kts | 225° |
| 2026-05-07 01:06 | -28.51521 | 152.48369 | 26777 ft | 445 kts | 225° |
| 2026-05-07 01:06 | -28.54050 | 152.46320 | 27138 ft | 447 kts | 225° |
| 2026-05-07 01:07 | -28.56596 | 152.44255 | 27464 ft | 448 kts | 225° |
| 2026-05-07 01:07 | -28.59138 | 152.42194 | 27748 ft | 450 kts | 225° |
| 2026-05-07 01:07 | -28.60831 | 152.40819 | 27952 ft | 451 kts | 225° |
| 2026-05-07 01:07 | -28.63391 | 152.38741 | 28336 ft | 451 kts | 226° |
| 2026-05-07 01:08 | -28.65941 | 152.36672 | 28804 ft | 448 kts | 226° |
| 2026-05-07 01:08 | -28.68475 | 152.34617 | 29330 ft | 445 kts | 227° |
| 2026-05-07 01:08 | -28.70997 | 152.32568 | 29835 ft | 443 kts | 227° |
| 2026-05-07 01:08 | -28.73500 | 152.30532 | 30242 ft | 442 kts | 227° |
| 2026-05-07 01:09 | -28.75966 | 152.28523 | 30657 ft | 440 kts | 228° |
| 2026-05-07 01:09 | -28.78448 | 152.26500 | 31174 ft | 436 kts | 227° |
| 2026-05-07 01:09 | -28.80905 | 152.24498 | 31626 ft | 434 kts | 227° |
| 2026-05-07 01:09 | -28.83364 | 152.22490 | 31965 ft | 434 kts | 228° |
| 2026-05-07 01:10 | -28.85813 | 152.20487 | 32299 ft | 433 kts | 228° |
| 2026-05-07 01:10 | -28.88261 | 152.18484 | 32667 ft | 432 kts | 228° |
| 2026-05-07 01:10 | -28.90703 | 152.16489 | 33081 ft | 430 kts | 228° |
| 2026-05-07 01:10 | -28.93133 | 152.14502 | 33471 ft | 428 kts | 228° |
| 2026-05-07 01:11 | -28.95548 | 152.12525 | 33816 ft | 427 kts | 229° |
| 2026-05-07 01:11 | -28.97936 | 152.10568 | 34142 ft | 427 kts | 229° |
| 2026-05-07 01:11 | -29.00343 | 152.08596 | 34517 ft | 424 kts | 229° |
| 2026-05-07 01:11 | -29.02734 | 152.06636 | 34866 ft | 422 kts | 229° |
| 2026-05-07 01:12 | -29.05117 | 152.04682 | 35160 ft | 421 kts | 229° |
| 2026-05-07 01:12 | -29.07495 | 152.02729 | 35442 ft | 420 kts | 229° |
| 2026-05-07 01:12 | -29.09863 | 152.00782 | 35749 ft | 419 kts | 229° |
| 2026-05-07 01:12 | -29.12227 | 151.98839 | 36061 ft | 417 kts | 229° |
| 2026-05-07 01:13 | -29.14580 | 151.96905 | 36355 ft | 415 kts | 229° |
| 2026-05-07 01:13 | -29.16926 | 151.94974 | 36627 ft | 415 kts | 229° |
| 2026-05-07 01:13 | -29.19272 | 151.93041 | 36869 ft | 415 kts | 229° |
| 2026-05-07 01:13 | -29.21613 | 151.91109 | 37055 ft | 416 kts | 229° |
| 2026-05-07 01:14 | -29.23971 | 151.89160 | 37251 ft | 418 kts | 229° |
| 2026-05-07 01:14 | -29.26324 | 151.87220 | 37573 ft | 416 kts | 229° |
| 2026-05-07 01:14 | -29.28670 | 151.85289 | 37916 ft | 413 kts | 229° |
| 2026-05-07 01:14 | -29.30971 | 151.83390 | 38108 ft | 414 kts | 229° |
| 2026-05-07 01:15 | -29.33324 | 151.81442 | 38096 ft | 417 kts | 229° |
| 2026-05-07 01:15 | -29.38020 | 151.77560 | 38118 ft | 414 kts | 229° |
| 2026-05-07 01:16 | -29.42678 | 151.73706 | 38154 ft | 411 kts | 229° |
| 2026-05-07 01:16 | -29.47309 | 151.69864 | 38124 ft | 410 kts | 229° |
| 2026-05-07 01:17 | -29.51951 | 151.66044 | 38121 ft | 413 kts | 227° |
| 2026-05-07 01:17 | -29.56994 | 151.62667 | 38109 ft | 422 kts | 223° |
| 2026-05-07 01:18 | -29.62116 | 151.59432 | 38128 ft | 423 kts | 223° |
| 2026-05-07 01:18 | -29.67278 | 151.56126 | 38133 ft | 426 kts | 223° |
| 2026-05-07 01:19 | -29.72456 | 151.52770 | 38133 ft | 428 kts | 223° |
| 2026-05-07 01:19 | -29.77653 | 151.49388 | 38132 ft | 430 kts | 223° |
| 2026-05-07 01:20 | -29.82873 | 151.45985 | 38130 ft | 431 kts | 223° |
| 2026-05-07 01:20 | -29.88110 | 151.42568 | 38141 ft | 434 kts | 223° |
| 2026-05-07 01:21 | -29.93346 | 151.39149 | 38134 ft | 435 kts | 223° |
| 2026-05-07 01:21 | -29.98613 | 151.35706 | 38136 ft | 434 kts | 223° |
| 2026-05-07 01:22 | -30.03876 | 151.32259 | 38152 ft | 434 kts | 223° |
| 2026-05-07 01:22 | -30.09111 | 151.28824 | 38138 ft | 434 kts | 223° |
| 2026-05-07 01:23 | -30.14351 | 151.25382 | 38145 ft | 433 kts | 223° |
| 2026-05-07 01:23 | -30.19580 | 151.21941 | 38140 ft | 432 kts | 223° |
| 2026-05-07 01:24 | -30.24800 | 151.18502 | 38151 ft | 431 kts | 223° |